createdAt,value
2022-10-05T00:01:28.297Z,100.00
2022-10-05T00:04:00.981Z,100.00
2022-10-05T00:06:30.145Z,100.00
2022-10-05T00:08:57.796Z,100.00
2022-10-05T00:11:26.893Z,100.00
2022-10-05T00:13:54.494Z,100.00
2022-10-05T00:16:25.353Z,100.00
2022-10-05T00:18:54.889Z,100.00
2022-10-05T00:21:24.269Z,100.00
2022-10-05T00:23:52.621Z,100.00
2022-10-05T00:26:24.414Z,100.00
2022-10-05T00:28:54.425Z,100.00
2022-10-05T00:31:23.966Z,100.00
2022-10-05T00:33:52.370Z,100.00
2022-10-05T00:36:21.048Z,100.00
2022-10-05T00:38:48.883Z,100.00
2022-10-05T00:41:22.071Z,100.00
2022-10-05T00:44:12.619Z,100.00
2022-10-05T00:46:53.706Z,100.00
2022-10-05T00:49:36.560Z,100.00
2022-10-05T00:52:20.240Z,100.00
2022-10-05T00:54:55.682Z,100.00
2022-10-05T00:57:36.714Z,100.00
2022-10-05T01:00:08.839Z,100.00
2022-10-05T01:02:50.137Z,100.00
2022-10-05T01:05:34.719Z,100.00
2022-10-05T01:08:08.643Z,100.00
2022-10-05T01:10:41.914Z,100.00
2022-10-05T01:13:21.984Z,100.00
2022-10-05T01:15:59.071Z,100.00
2022-10-05T01:18:38.630Z,100.00
2022-10-05T01:21:17.043Z,100.00
2022-10-05T01:24:03.403Z,100.00
2022-10-05T01:26:45.040Z,100.00
2022-10-05T01:29:19.887Z,100.00
2022-10-05T01:31:55.919Z,100.00
2022-10-05T01:34:33.250Z,100.00
2022-10-05T01:37:09.780Z,100.00
2022-10-05T01:39:47.432Z,100.00
2022-10-05T01:42:30.391Z,100.00
2022-10-05T01:45:09.482Z,100.00
2022-10-05T01:47:44.764Z,100.00
2022-10-05T01:50:23.403Z,100.00
2022-10-05T01:52:59.877Z,100.00
2022-10-05T01:55:39.030Z,100.00
2022-10-05T01:58:16.179Z,100.00
2022-10-05T02:00:53.260Z,100.00
2022-10-05T02:03:26.126Z,100.00
2022-10-05T02:05:58.141Z,100.00
2022-10-05T02:08:32.457Z,100.00
2022-10-05T02:11:05.448Z,100.00
2022-10-05T02:13:39.267Z,100.00
2022-10-05T02:16:11.455Z,100.00
2022-10-05T02:18:44.596Z,100.00
2022-10-05T02:21:12.272Z,100.00
2022-10-05T02:23:43.842Z,100.00
2022-10-05T02:26:13.873Z,100.00
2022-10-05T02:28:48.538Z,100.00
2022-10-05T02:31:23.348Z,100.00
2022-10-05T02:33:51.136Z,100.00
2022-10-05T02:36:24.764Z,100.00
2022-10-05T02:39:02.012Z,100.00
2022-10-05T02:41:40.675Z,100.00
2022-10-05T02:44:20.652Z,100.00
2022-10-05T02:47:01.688Z,100.00
2022-10-05T02:49:38.729Z,100.00
2022-10-05T02:52:12.993Z,100.00
2022-10-05T02:54:51.304Z,100.00
2022-10-05T02:57:28.151Z,100.00
2022-10-05T03:00:04.293Z,100.00
2022-10-05T03:02:40.812Z,100.00
2022-10-05T03:05:19.213Z,100.00
2022-10-05T03:07:55.622Z,100.00
2022-10-05T03:10:30.817Z,100.00
2022-10-05T03:13:06.521Z,100.00
2022-10-05T03:15:49.201Z,100.00
2022-10-05T03:18:30.754Z,100.00
2022-10-05T03:21:07.548Z,100.00
2022-10-05T03:23:46.040Z,100.00
2022-10-05T03:26:25.654Z,100.00
2022-10-05T03:29:02.949Z,100.00
2022-10-05T03:31:39.564Z,100.00
2022-10-05T03:34:15.013Z,100.00
2022-10-05T03:36:48.767Z,100.00
2022-10-05T03:39:27.348Z,100.00
2022-10-05T03:42:03.483Z,100.00
2022-10-05T03:44:41.829Z,100.00
2022-10-05T03:47:15.609Z,100.00
2022-10-05T03:50:03.935Z,100.00
2022-10-05T03:52:37.554Z,100.00
2022-10-05T03:55:16.766Z,100.00
2022-10-05T03:57:45.664Z,100.00
2022-10-05T04:00:16.983Z,100.00
2022-10-05T04:02:50.901Z,100.00
2022-10-05T04:05:23.854Z,100.00
2022-10-05T04:07:57.653Z,100.00
2022-10-05T04:10:28.358Z,100.00
2022-10-05T04:13:02.300Z,100.00
2022-10-05T04:15:34.700Z,100.00
2022-10-05T04:18:06.444Z,100.00
2022-10-05T04:20:43.514Z,100.00
2022-10-05T04:23:20.284Z,100.00
2022-10-05T04:25:51.423Z,100.00
2022-10-05T04:28:31.060Z,100.00
2022-10-05T04:31:04.862Z,100.00
2022-10-05T04:33:33.100Z,100.00
2022-10-05T04:36:13.896Z,100.00
2022-10-05T04:38:53.256Z,100.00
2022-10-05T04:41:41.946Z,100.00
2022-10-05T04:44:37.433Z,100.00
2022-10-05T04:47:20.555Z,100.00
2022-10-05T04:50:01.800Z,100.00
2022-10-05T04:52:41.089Z,100.00
2022-10-05T04:55:19.205Z,100.00
2022-10-05T04:57:52.404Z,100.00
2022-10-05T05:00:24.739Z,100.00
2022-10-05T05:03:12.772Z,100.00
2022-10-05T05:06:15.337Z,100.00
2022-10-05T05:09:00.927Z,100.00
2022-10-05T05:11:33.386Z,100.00
2022-10-05T05:14:17.738Z,100.00
2022-10-05T05:16:50.316Z,100.00
2022-10-05T05:19:34.701Z,100.00
2022-10-05T05:22:05.865Z,100.00
2022-10-05T05:24:53.393Z,100.00
2022-10-05T05:27:51.443Z,100.00
2022-10-05T05:30:24.671Z,100.00
2022-10-05T05:33:06.520Z,100.00
2022-10-05T05:36:01.473Z,100.00
2022-10-05T05:38:35.387Z,100.00
2022-10-05T05:41:11.136Z,100.00
2022-10-05T05:43:57.458Z,100.00
2022-10-05T05:46:45.028Z,100.00
2022-10-05T05:49:21.719Z,100.00
2022-10-05T05:51:55.116Z,100.00
2022-10-05T05:54:31.363Z,100.00
2022-10-05T05:57:10.768Z,100.00
2022-10-05T05:59:50.735Z,100.00
2022-10-05T06:02:26.807Z,100.00
2022-10-05T06:04:59.865Z,100.00
2022-10-05T06:07:31.767Z,100.00
2022-10-05T06:10:04.821Z,100.00
2022-10-05T06:12:39.479Z,100.00
2022-10-05T06:15:22.227Z,100.00
2022-10-05T06:17:56.750Z,100.00
2022-10-05T06:20:29.740Z,100.00
2022-10-05T06:23:03.211Z,100.00
2022-10-05T06:25:43.497Z,100.00
2022-10-05T06:28:13.667Z,100.00
2022-10-05T06:31:01.844Z,100.00
2022-10-05T06:33:49.249Z,100.00
2022-10-05T06:36:30.457Z,100.00
2022-10-05T06:39:18.128Z,99.04
2022-10-05T06:42:02.574Z,98.82
2022-10-05T06:44:38.479Z,98.45
2022-10-05T06:47:16.035Z,98.01
2022-10-05T06:49:52.212Z,98.28
2022-10-05T06:52:27.173Z,97.62
2022-10-05T06:55:14.065Z,97.18
2022-10-05T06:57:54.238Z,97.23
2022-10-05T07:00:25.948Z,97.25
2022-10-05T07:02:58.600Z,96.87
2022-10-05T07:05:49.096Z,95.68
2022-10-05T07:08:29.045Z,96.25
2022-10-05T07:11:07.666Z,95.43
2022-10-05T07:13:53.719Z,95.47
2022-10-05T07:16:33.062Z,94.61
2022-10-05T07:19:14.391Z,94.19
2022-10-05T07:21:48.923Z,94.09
2022-10-05T07:24:30.249Z,94.05
2022-10-05T07:27:08.853Z,94.87
2022-10-05T07:29:46.613Z,95.60
2022-10-05T07:32:32.095Z,94.79
2022-10-05T07:35:05.383Z,94.09
2022-10-05T07:37:54.218Z,92.89
2022-10-05T07:40:28.379Z,93.64
2022-10-05T07:43:06.717Z,92.63
2022-10-05T07:45:43.220Z,92.01
2022-10-05T07:48:18.034Z,92.13
2022-10-05T07:50:59.516Z,91.73
2022-10-05T07:53:32.941Z,92.14
2022-10-05T07:56:07.347Z,91.40
2022-10-05T07:58:41.689Z,91.50
2022-10-05T08:01:16.925Z,91.36
2022-10-05T08:03:53.599Z,92.04
2022-10-05T08:06:35.894Z,92.26
2022-10-05T08:09:09.830Z,91.16
2022-10-05T08:11:46.505Z,90.95
2022-10-05T08:14:18.948Z,90.99
2022-10-05T08:16:49.715Z,91.80
2022-10-05T08:19:24.521Z,91.77
2022-10-05T08:21:56.953Z,91.00
2022-10-05T08:24:42.155Z,91.12
2022-10-05T08:27:16.407Z,91.17
2022-10-05T08:29:54.706Z,90.82
2022-10-05T08:32:25.828Z,90.84
2022-10-05T08:34:59.441Z,91.07
2022-10-05T08:37:30.588Z,90.85
2022-10-05T08:40:22.541Z,90.96
2022-10-05T08:43:13.092Z,90.67
2022-10-05T08:46:17.994Z,89.80
2022-10-05T08:49:11.941Z,89.37
2022-10-05T08:52:17.396Z,90.27
2022-10-05T08:54:56.698Z,90.06
2022-10-05T08:57:43.551Z,88.82
2022-10-05T09:00:14.992Z,87.59
2022-10-05T09:03:12.311Z,86.47
2022-10-05T09:06:30.607Z,86.44
2022-10-05T09:09:30.797Z,86.67
2022-10-05T09:12:16.124Z,85.56
2022-10-05T09:15:24.833Z,84.90
2022-10-05T09:18:37.482Z,84.04
2022-10-05T09:24:43.894Z,82.67
2022-10-05T09:27:17.614Z,82.60
2022-10-05T09:30:19.087Z,82.89
2022-10-05T09:33:09.032Z,82.37
2022-10-05T09:36:08.271Z,80.30
2022-10-05T09:38:59.487Z,77.97
2022-10-05T09:41:52.799Z,76.91
2022-10-05T09:44:53.197Z,75.17
2022-10-05T09:47:54.268Z,74.34
2022-10-05T09:50:51.500Z,74.54
2022-10-05T09:53:48.007Z,74.01
2022-10-05T09:56:34.722Z,75.69
2022-10-05T09:59:56.821Z,75.83
2022-10-05T10:02:40.322Z,75.45
2022-10-05T10:05:25.555Z,76.48
2022-10-05T10:08:05.607Z,76.36
2022-10-05T10:10:57.683Z,76.85
2022-10-05T10:14:06.671Z,76.23
2022-10-05T10:16:49.563Z,75.13
2022-10-05T10:19:45.493Z,75.05
2022-10-05T10:22:33.048Z,76.16
2022-10-05T10:25:28.310Z,75.82
2022-10-05T10:28:16.027Z,75.64
2022-10-05T10:30:55.113Z,73.83
2022-10-05T10:33:49.101Z,75.10
2022-10-05T10:36:27.052Z,74.77
2022-10-05T10:39:03.277Z,75.89
2022-10-05T10:42:04.456Z,74.81
2022-10-05T10:45:05.906Z,74.70
2022-10-05T10:47:45.146Z,75.55
2022-10-05T10:50:45.712Z,75.66
2022-10-05T10:53:29.693Z,75.77
2022-10-05T10:56:15.468Z,75.68
2022-10-05T10:59:06.185Z,75.45
2022-10-05T11:01:36.297Z,74.44
2022-10-05T11:04:41.069Z,74.18
2022-10-05T11:07:34.831Z,74.39
2022-10-05T11:10:30.743Z,72.97
2022-10-05T11:13:18.001Z,73.14
2022-10-05T11:16:19.801Z,71.14
2022-10-05T11:19:35.167Z,71.73
2022-10-05T11:22:45.777Z,71.40
2022-10-05T11:25:48.026Z,71.24
2022-10-05T11:28:42.333Z,69.85
2022-10-05T11:31:45.155Z,68.74
2022-10-05T11:34:36.119Z,68.02
2022-10-05T11:37:41.924Z,69.58
2022-10-05T11:40:47.585Z,70.04
2022-10-05T11:43:39.170Z,69.98
2022-10-05T11:46:17.598Z,69.06
2022-10-05T11:49:12.809Z,68.53
2022-10-05T11:51:59.878Z,68.10
2022-10-05T11:55:16.439Z,67.95
2022-10-05T11:57:39.269Z,69.79
2022-10-05T12:00:17.115Z,69.65
2022-10-05T12:03:00.706Z,69.75
2022-10-05T12:05:35.173Z,70.16
2022-10-05T12:08:20.268Z,68.28
2022-10-05T12:10:59.667Z,70.65
2022-10-05T12:13:35.951Z,71.84
2022-10-05T12:16:12.564Z,72.16
2022-10-05T12:18:49.780Z,72.29
2022-10-05T12:21:27.639Z,71.92
2022-10-05T12:24:00.096Z,70.39
2022-10-05T12:26:32.329Z,69.90
2022-10-05T12:29:08.161Z,69.33
2022-10-05T12:31:46.394Z,69.61
2022-10-05T12:34:26.863Z,71.48
2022-10-05T12:37:04.454Z,70.86
2022-10-05T12:39:41.889Z,71.81
2022-10-05T12:42:19.532Z,72.18
2022-10-05T12:45:04.446Z,72.61
2022-10-05T12:47:51.516Z,74.04
2022-10-05T12:50:28.558Z,74.37
2022-10-05T12:53:26.694Z,75.87
2022-10-05T12:56:02.596Z,75.89
2022-10-05T12:58:39.420Z,75.57
2022-10-05T13:01:15.139Z,76.34
2022-10-05T13:03:48.731Z,75.92
2022-10-05T13:06:24.056Z,76.15
2022-10-05T13:08:57.565Z,75.89
2022-10-05T13:11:34.286Z,75.25
2022-10-05T13:14:12.499Z,73.77
2022-10-05T13:16:54.756Z,74.70
2022-10-05T13:19:35.420Z,74.71
2022-10-05T13:22:19.747Z,74.79
2022-10-05T13:25:11.396Z,74.87
2022-10-05T13:27:48.063Z,74.52
2022-10-05T13:30:19.242Z,74.86
2022-10-05T13:32:49.304Z,73.95
2022-10-05T13:35:34.908Z,73.74
2022-10-05T13:38:08.748Z,73.31
2022-10-05T13:40:43.544Z,74.00
2022-10-05T13:43:20.284Z,73.71
2022-10-05T13:45:56.700Z,73.71
2022-10-05T13:48:46.335Z,74.16
2022-10-05T13:51:20.267Z,74.69
2022-10-05T13:53:55.958Z,74.06
2022-10-05T13:56:29.760Z,73.75
2022-10-05T13:59:11.840Z,72.94
2022-10-05T14:01:44.044Z,73.67
2022-10-05T14:04:18.021Z,74.22
2022-10-05T14:06:47.730Z,73.74
2022-10-05T14:09:29.158Z,73.86
2022-10-05T14:12:14.888Z,73.46
2022-10-05T14:14:49.185Z,73.43
2022-10-05T14:17:32.893Z,73.30
2022-10-05T14:20:03.083Z,73.98
2022-10-05T14:22:42.589Z,73.68
2022-10-05T14:25:17.044Z,74.36
2022-10-05T14:27:51.920Z,74.38
2022-10-05T14:30:23.617Z,75.11
2022-10-05T14:32:56.112Z,74.45
2022-10-05T14:35:25.674Z,74.17
2022-10-05T14:38:00.144Z,74.83
2022-10-05T14:40:33.801Z,74.97
2022-10-05T14:43:17.176Z,74.79
2022-10-05T14:45:54.272Z,74.14
2022-10-05T14:48:22.648Z,73.92
2022-10-05T14:50:56.049Z,74.37
2022-10-05T14:53:37.373Z,74.84
2022-10-05T14:56:21.933Z,74.92
2022-10-05T14:59:10.873Z,75.35
2022-10-05T15:01:46.023Z,75.95
2022-10-05T15:04:27.044Z,75.86
2022-10-05T15:07:06.377Z,76.25
2022-10-05T15:09:52.030Z,76.22
2022-10-05T15:12:25.799Z,77.14
2022-10-05T15:14:58.330Z,77.40
2022-10-05T15:17:30.946Z,76.81
2022-10-05T15:20:05.159Z,77.30
2022-10-05T15:22:45.821Z,77.56
2022-10-05T15:25:21.342Z,78.16
2022-10-05T15:28:04.581Z,77.87
2022-10-05T15:30:36.734Z,78.32
2022-10-05T15:33:13.174Z,78.31
2022-10-05T15:36:02.514Z,78.55
2022-10-05T15:38:34.856Z,78.54
2022-10-05T15:41:14.769Z,79.11
2022-10-05T15:44:00.964Z,79.37
2022-10-05T15:46:35.085Z,79.66
2022-10-05T15:49:19.102Z,80.43
2022-10-05T15:52:03.448Z,81.39
2022-10-05T15:55:14.527Z,81.09
2022-10-05T15:57:50.461Z,81.51
2022-10-05T16:00:20.701Z,81.29
2022-10-05T16:02:53.730Z,81.53
2022-10-05T16:05:51.228Z,81.74
2022-10-05T16:08:54.122Z,81.57
2022-10-05T16:11:44.044Z,81.40
2022-10-05T16:14:27.961Z,81.89
2022-10-05T16:17:12.013Z,81.68
2022-10-05T16:19:48.854Z,82.50
2022-10-05T16:22:26.245Z,82.52
2022-10-05T16:25:07.229Z,82.48
2022-10-05T16:27:49.548Z,82.69
2022-10-05T16:30:22.064Z,83.06
2022-10-05T16:33:00.825Z,83.67
2022-10-05T16:35:44.203Z,84.39
2022-10-05T16:38:26.940Z,84.50
2022-10-05T16:41:03.648Z,84.73
2022-10-05T16:43:41.431Z,85.50
2022-10-05T16:46:22.220Z,86.28
2022-10-05T16:48:59.351Z,86.23
2022-10-05T16:51:32.210Z,86.20
2022-10-05T16:54:11.514Z,86.86
2022-10-05T16:56:44.434Z,87.27
2022-10-05T16:59:35.430Z,87.73
2022-10-05T17:02:15.057Z,88.30
2022-10-05T17:04:56.696Z,88.58
2022-10-05T17:07:39.293Z,89.24
2022-10-05T17:10:30.073Z,89.97
2022-10-05T17:13:06.836Z,90.44
2022-10-05T17:15:44.917Z,90.83
2022-10-05T17:18:27.987Z,91.44
2022-10-05T17:21:03.219Z,91.63
2022-10-05T17:23:50.252Z,91.77
2022-10-05T17:26:34.685Z,92.21
2022-10-05T17:29:15.165Z,92.36
2022-10-05T17:32:02.900Z,92.67
2022-10-05T17:34:34.274Z,93.16
2022-10-05T17:37:19.239Z,93.64
2022-10-05T17:39:50.694Z,93.76
2022-10-05T17:42:48.166Z,94.39
2022-10-05T17:45:53.528Z,94.80
2022-10-05T17:48:39.042Z,94.99
2022-10-05T17:51:36.199Z,94.88
2022-10-05T17:54:38.041Z,95.06
2022-10-05T17:57:20.461Z,95.41
2022-10-05T17:59:59.399Z,95.62
2022-10-05T18:02:40.770Z,95.76
2022-10-05T18:05:27.590Z,95.62
2022-10-05T18:08:31.729Z,95.94
2022-10-05T18:11:17.007Z,96.44
2022-10-05T18:13:49.941Z,96.89
2022-10-05T18:16:51.007Z,97.18
2022-10-05T18:19:22.864Z,97.44
2022-10-05T18:22:15.348Z,97.96
2022-10-05T18:25:05.716Z,98.21
2022-10-05T18:27:50.833Z,98.17
2022-10-05T18:30:22.378Z,98.30
2022-10-05T18:33:27.068Z,98.25
2022-10-05T18:36:03.825Z,97.95
2022-10-05T18:38:43.554Z,97.18
2022-10-05T18:41:22.621Z,95.25
2022-10-05T18:43:59.227Z,93.82
2022-10-05T18:46:40.495Z,92.57
2022-10-05T18:49:23.283Z,90.57
2022-10-05T18:51:56.167Z,89.53
2022-10-05T18:54:54.085Z,88.51
2022-10-05T18:57:50.070Z,87.63
2022-10-05T19:00:24.270Z,86.03
2022-10-05T19:02:57.294Z,85.67
2022-10-05T19:05:47.946Z,85.79
2022-10-05T19:08:26.874Z,85.79
2022-10-05T19:10:58.414Z,85.38
2022-10-05T19:13:42.413Z,85.04
2022-10-05T19:16:25.343Z,84.74
2022-10-05T19:19:15.573Z,85.21
2022-10-05T19:21:50.852Z,85.16
2022-10-05T19:24:34.399Z,85.65
2022-10-05T19:27:09.428Z,86.09
2022-10-05T19:30:01.409Z,86.35
2022-10-05T19:32:41.986Z,86.43
2022-10-05T19:35:21.914Z,86.75
2022-10-05T19:38:03.260Z,86.39
2022-10-05T19:40:39.723Z,86.37
2022-10-05T19:43:26.746Z,85.75
2022-10-05T19:46:16.244Z,85.52
2022-10-05T19:48:50.368Z,85.51
2022-10-05T19:51:28.717Z,86.00
2022-10-05T19:53:59.228Z,86.11
2022-10-05T19:56:30.887Z,86.37
2022-10-05T19:59:00.913Z,86.32
2022-10-05T20:01:33.915Z,86.95
2022-10-05T20:04:01.875Z,87.56
2022-10-05T20:06:30.151Z,87.55
2022-10-05T20:09:00.347Z,87.63
2022-10-05T20:11:31.518Z,88.00
2022-10-05T20:14:19.478Z,87.58
2022-10-05T20:17:06.727Z,87.34
2022-10-05T20:19:57.375Z,87.08
2022-10-05T20:22:32.874Z,86.88
2022-10-05T20:25:02.229Z,85.79
2022-10-05T20:27:46.470Z,85.18
2022-10-05T20:30:16.466Z,84.92
2022-10-05T20:32:48.696Z,84.52
2022-10-05T20:35:16.827Z,84.56
2022-10-05T20:37:44.656Z,84.75
2022-10-05T20:40:14.718Z,85.16
2022-10-05T20:42:42.305Z,85.01
2022-10-05T20:45:13.492Z,85.25
2022-10-05T20:47:42.190Z,85.97
2022-10-05T20:50:11.894Z,85.63
2022-10-05T20:52:40.022Z,85.70
2022-10-05T20:55:09.703Z,85.91
2022-10-05T20:57:41.496Z,86.60
2022-10-05T21:00:10.882Z,86.63
2022-10-05T21:02:39.389Z,86.82
2022-10-05T21:05:08.527Z,87.13
2022-10-05T21:07:37.580Z,87.21
2022-10-05T21:10:06.609Z,87.79
2022-10-05T21:12:34.679Z,87.72
2022-10-05T21:15:05.621Z,87.71
2022-10-05T21:17:35.082Z,88.02
2022-10-05T21:20:03.042Z,88.55
2022-10-05T21:22:30.689Z,88.96
2022-10-05T21:24:59.733Z,88.92
2022-10-05T21:27:27.363Z,88.60
2022-10-05T21:29:54.989Z,88.75
2022-10-05T21:32:22.853Z,89.58
2022-10-05T21:34:50.535Z,89.53
2022-10-05T21:37:19.769Z,89.10
2022-10-05T21:39:47.901Z,89.38
2022-10-05T21:42:16.829Z,89.14
2022-10-05T21:44:44.460Z,89.61
2022-10-05T21:47:12.647Z,89.74
2022-10-05T21:49:40.276Z,89.58
2022-10-05T21:52:07.954Z,89.45
2022-10-05T21:54:35.991Z,89.79
2022-10-05T21:57:04.056Z,90.06
2022-10-05T21:59:35.753Z,90.85
2022-10-05T22:02:03.494Z,90.76
2022-10-05T22:04:31.178Z,91.18
2022-10-05T22:06:59.242Z,91.08
2022-10-05T22:09:27.597Z,91.02
2022-10-05T22:11:55.292Z,91.21
2022-10-05T22:14:23.146Z,91.60
2022-10-05T22:16:53.948Z,91.58
2022-10-05T22:19:21.682Z,91.58
2022-10-05T22:21:49.318Z,91.71
2022-10-05T22:24:16.982Z,91.99
2022-10-05T22:26:47.658Z,92.00
2022-10-05T22:29:16.927Z,92.16
2022-10-05T22:31:46.198Z,92.22
2022-10-05T22:34:15.713Z,92.33
2022-10-05T22:36:43.425Z,92.57
2022-10-05T22:39:11.029Z,93.08
2022-10-05T22:41:38.619Z,93.17
2022-10-05T22:44:06.684Z,93.55
2022-10-05T22:46:34.676Z,93.64
2022-10-05T22:49:02.544Z,94.54
2022-10-05T22:51:31.621Z,94.08
2022-10-05T22:53:59.223Z,94.39
2022-10-05T22:56:26.912Z,94.53
2022-10-05T22:58:54.532Z,94.74
2022-10-05T23:01:22.192Z,94.93
2022-10-05T23:03:50.019Z,94.80
2022-10-05T23:06:19.730Z,95.74
2022-10-05T23:08:49.065Z,95.73
2022-10-05T23:11:18.344Z,95.97
2022-10-05T23:13:46.179Z,96.50
2022-10-05T23:16:16.270Z,96.64
2022-10-05T23:18:45.089Z,96.80
2022-10-05T23:21:12.808Z,97.11
2022-10-05T23:23:41.862Z,97.24
2022-10-05T23:26:12.405Z,97.43
2022-10-05T23:28:42.940Z,97.86
2022-10-05T23:31:10.754Z,97.75
2022-10-05T23:33:38.362Z,98.39
2022-10-05T23:36:08.275Z,98.53
2022-10-05T23:38:36.764Z,98.92
2022-10-05T23:41:04.951Z,99.19
2022-10-05T23:43:34.611Z,99.38
2022-10-05T23:46:02.938Z,99.78
2022-10-05T23:48:31.389Z,99.97
2022-10-05T23:51:00.320Z,99.47
2022-10-05T23:53:28.114Z,99.91
2022-10-05T23:55:56.447Z,100.00
2022-10-05T23:58:24.710Z,100.00
